sensor_id;sensor_type;location;lat;lon;timestamp;temperature;humidity
4058;DHT22;2044;48.692;9.020;2023-04-03T00:01:59;1.80;99.90
4058;DHT22;2044;48.692;9.020;2023-04-03T00:04:26;1.80;99.90
4058;DHT22;2044;48.692;9.020;2023-04-03T00:06:54;1.80;99.90
4058;DHT22;2044;48.692;9.020;2023-04-03T00:09:21;1.80;99.90
4058;DHT22;2044;48.692;9.020;2023-04-03T00:11:48;1.80;99.90
4058;DHT22;2044;48.692;9.020;2023-04-03T00:14:14;1.80;99.90
4058;DHT22;2044;48.692;9.020;2023-04-03T00:16:41;1.80;99.90
4058;DHT22;2044;48.692;9.020;2023-04-03T00:19:08;1.70;99.90
4058;DHT22;2044;48.692;9.020;2023-04-03T00:21:37;1.70;99.90
4058;DHT22;2044;48.692;9.020;2023-04-03T00:24:05;1.80;99.90
4058;DHT22;2044;48.692;9.020;2023-04-03T00:26:32;1.70;99.90
4058;DHT22;2044;48.692;9.020;2023-04-03T00:31:26;1.70;99.90
4058;DHT22;2044;48.692;9.020;2023-04-03T00:33:53;1.70;99.90
4058;DHT22;2044;48.692;9.020;2023-04-03T00:36:19;1.70;99.90
4058;DHT22;2044;48.692;9.020;2023-04-03T00:38:46;1.60;99.90
4058;DHT22;2044;48.692;9.020;2023-04-03T00:41:14;1.60;99.90
4058;DHT22;2044;48.692;9.020;2023-04-03T00:43:41;1.60;99.90
4058;DHT22;2044;48.692;9.020;2023-04-03T00:46:08;1.60;99.90
4058;DHT22;2044;48.692;9.020;2023-04-03T00:48:37;1.60;99.90
4058;DHT22;2044;48.692;9.020;2023-04-03T00:51:08;1.60;99.90
4058;DHT22;2044;48.692;9.020;2023-04-03T00:53:39;1.50;99.90
4058;DHT22;2044;48.692;9.020;2023-04-03T00:56:09;1.50;99.90
4058;DHT22;2044;48.692;9.020;2023-04-03T00:58:41;1.50;99.90
4058;DHT22;2044;48.692;9.020;2023-04-03T01:01:14;1.50;99.90
4058;DHT22;2044;48.692;9.020;2023-04-03T01:03:42;1.50;99.90
4058;DHT22;2044;48.692;9.020;2023-04-03T01:06:09;1.50;99.90
4058;DHT22;2044;48.692;9.020;2023-04-03T01:08:35;1.40;99.90
4058;DHT22;2044;48.692;9.020;2023-04-03T01:11:02;1.40;99.90
4058;DHT22;2044;48.692;9.020;2023-04-03T01:13:31;1.50;99.90
4058;DHT22;2044;48.692;9.020;2023-04-03T01:16:04;1.40;99.90
4058;DHT22;2044;48.692;9.020;2023-04-03T01:18:32;1.40;99.90
4058;DHT22;2044;48.692;9.020;2023-04-03T01:24:22;1.40;99.90
4058;DHT22;2044;48.692;9.020;2023-04-03T01:26:51;1.40;99.90
4058;DHT22;2044;48.692;9.020;2023-04-03T01:29:18;1.30;99.90
4058;DHT22;2044;48.692;9.020;2023-04-03T01:31:51;1.40;99.90
4058;DHT22;2044;48.692;9.020;2023-04-03T01:34:18;1.30;99.90
4058;DHT22;2044;48.692;9.020;2023-04-03T01:36:45;1.30;99.90
4058;DHT22;2044;48.692;9.020;2023-04-03T01:39:12;1.30;99.90
4058;DHT22;2044;48.692;9.020;2023-04-03T01:41:39;1.20;99.90
4058;DHT22;2044;48.692;9.020;2023-04-03T01:44:06;1.20;99.90
4058;DHT22;2044;48.692;9.020;2023-04-03T01:46:33;1.20;99.90
4058;DHT22;2044;48.692;9.020;2023-04-03T01:49:01;1.10;99.90
4058;DHT22;2044;48.692;9.020;2023-04-03T01:51:28;1.10;99.90
4058;DHT22;2044;48.692;9.020;2023-04-03T01:53:55;1.00;99.90
4058;DHT22;2044;48.692;9.020;2023-04-03T01:56:22;1.00;99.90
4058;DHT22;2044;48.692;9.020;2023-04-03T01:58:49;1.00;99.90
4058;DHT22;2044;48.692;9.020;2023-04-03T02:01:15;1.00;99.90
4058;DHT22;2044;48.692;9.020;2023-04-03T02:03:42;1.00;99.90
4058;DHT22;2044;48.692;9.020;2023-04-03T02:06:10;1.00;99.90
4058;DHT22;2044;48.692;9.020;2023-04-03T02:08:37;0.90;99.90
4058;DHT22;2044;48.692;9.020;2023-04-03T02:11:03;0.90;99.90
4058;DHT22;2044;48.692;9.020;2023-04-03T02:13:30;0.90;99.90
4058;DHT22;2044;48.692;9.020;2023-04-03T02:15:57;0.90;99.90
4058;DHT22;2044;48.692;9.020;2023-04-03T02:18:24;0.90;99.90
4058;DHT22;2044;48.692;9.020;2023-04-03T02:20:51;0.90;99.90
4058;DHT22;2044;48.692;9.020;2023-04-03T02:23:19;2.30;99.90
4058;DHT22;2044;48.692;9.020;2023-04-03T02:25:45;0.80;99.90
4058;DHT22;2044;48.692;9.020;2023-04-03T02:28:14;0.80;99.90
4058;DHT22;2044;48.692;9.020;2023-04-03T02:30:41;0.80;99.90
4058;DHT22;2044;48.692;9.020;2023-04-03T02:33:07;0.90;99.90
4058;DHT22;2044;48.692;9.020;2023-04-03T02:35:34;1.00;99.90
4058;DHT22;2044;48.692;9.020;2023-04-03T02:38:02;1.00;99.90
4058;DHT22;2044;48.692;9.020;2023-04-03T02:40:30;1.00;99.90
4058;DHT22;2044;48.692;9.020;2023-04-03T02:42:57;1.00;99.90
4058;DHT22;2044;48.692;9.020;2023-04-03T02:45:23;1.00;99.90
4058;DHT22;2044;48.692;9.020;2023-04-03T02:47:50;1.10;99.90
4058;DHT22;2044;48.692;9.020;2023-04-03T02:50:17;1.00;99.90
4058;DHT22;2044;48.692;9.020;2023-04-03T02:52:43;1.10;99.90
4058;DHT22;2044;48.692;9.020;2023-04-03T02:55:13;1.10;99.90
4058;DHT22;2044;48.692;9.020;2023-04-03T02:57:42;1.10;99.90
4058;DHT22;2044;48.692;9.020;2023-04-03T03:00:09;1.00;99.90
4058;DHT22;2044;48.692;9.020;2023-04-03T03:02:36;1.00;99.90
4058;DHT22;2044;48.692;9.020;2023-04-03T03:05:03;1.00;99.90
4058;DHT22;2044;48.692;9.020;2023-04-03T03:07:30;1.00;99.90
4058;DHT22;2044;48.692;9.020;2023-04-03T03:09:57;1.00;99.90
4058;DHT22;2044;48.692;9.020;2023-04-03T03:12:24;1.10;99.90
4058;DHT22;2044;48.692;9.020;2023-04-03T03:14:52;1.10;99.90
4058;DHT22;2044;48.692;9.020;2023-04-03T03:17:19;1.10;99.90
4058;DHT22;2044;48.692;9.020;2023-04-03T03:19:45;1.10;99.90
4058;DHT22;2044;48.692;9.020;2023-04-03T03:22:12;1.00;99.90
4058;DHT22;2044;48.692;9.020;2023-04-03T03:24:39;1.10;99.90
4058;DHT22;2044;48.692;9.020;2023-04-03T03:27:05;1.10;99.90
4058;DHT22;2044;48.692;9.020;2023-04-03T03:29:32;3.30;99.90
4058;DHT22;2044;48.692;9.020;2023-04-03T03:32:00;1.00;99.90
4058;DHT22;2044;48.692;9.020;2023-04-03T03:34:26;1.00;99.90
4058;DHT22;2044;48.692;9.020;2023-04-03T03:36:53;1.00;99.90
4058;DHT22;2044;48.692;9.020;2023-04-03T03:39:20;0.90;99.90
4058;DHT22;2044;48.692;9.020;2023-04-03T03:41:47;1.00;99.90
4058;DHT22;2044;48.692;9.020;2023-04-03T03:44:15;1.00;99.90
4058;DHT22;2044;48.692;9.020;2023-04-03T03:46:41;1.00;99.90
4058;DHT22;2044;48.692;9.020;2023-04-03T03:49:09;1.00;99.90
4058;DHT22;2044;48.692;9.020;2023-04-03T03:51:36;1.00;99.90
4058;DHT22;2044;48.692;9.020;2023-04-03T03:54:03;1.00;99.90
4058;DHT22;2044;48.692;9.020;2023-04-03T03:56:30;1.00;99.90
4058;DHT22;2044;48.692;9.020;2023-04-03T03:58:57;1.00;99.90
4058;DHT22;2044;48.692;9.020;2023-04-03T04:01:24;1.10;99.90
4058;DHT22;2044;48.692;9.020;2023-04-03T04:03:51;1.20;99.90
4058;DHT22;2044;48.692;9.020;2023-04-03T04:06:20;1.10;99.90
4058;DHT22;2044;48.692;9.020;2023-04-03T04:08:47;1.20;99.90
4058;DHT22;2044;48.692;9.020;2023-04-03T04:11:14;1.10;99.90
4058;DHT22;2044;48.692;9.020;2023-04-03T04:13:41;1.10;99.90
4058;DHT22;2044;48.692;9.020;2023-04-03T04:18:35;1.10;99.90
4058;DHT22;2044;48.692;9.020;2023-04-03T04:21:02;1.20;99.90
4058;DHT22;2044;48.692;9.020;2023-04-03T04:23:30;1.20;99.90
4058;DHT22;2044;48.692;9.020;2023-04-03T04:25:57;1.20;99.90
4058;DHT22;2044;48.692;9.020;2023-04-03T04:28:24;1.20;99.90
4058;DHT22;2044;48.692;9.020;2023-04-03T04:30:50;1.20;99.90
4058;DHT22;2044;48.692;9.020;2023-04-03T04:33:17;1.20;99.90
4058;DHT22;2044;48.692;9.020;2023-04-03T04:35:44;1.20;99.90
4058;DHT22;2044;48.692;9.020;2023-04-03T04:38:10;1.20;99.90
4058;DHT22;2044;48.692;9.020;2023-04-03T04:40:38;1.20;99.90
4058;DHT22;2044;48.692;9.020;2023-04-03T04:43:06;1.30;99.90
4058;DHT22;2044;48.692;9.020;2023-04-03T04:45:32;1.20;99.90
4058;DHT22;2044;48.692;9.020;2023-04-03T04:47:59;1.20;99.90
4058;DHT22;2044;48.692;9.020;2023-04-03T04:50:26;1.20;99.90
4058;DHT22;2044;48.692;9.020;2023-04-03T04:52:53;1.20;99.90
4058;DHT22;2044;48.692;9.020;2023-04-03T04:55:19;1.30;99.90
4058;DHT22;2044;48.692;9.020;2023-04-03T04:57:47;1.30;99.90
4058;DHT22;2044;48.692;9.020;2023-04-03T05:00:15;1.30;99.90
4058;DHT22;2044;48.692;9.020;2023-04-03T05:02:42;1.30;99.90
4058;DHT22;2044;48.692;9.020;2023-04-03T05:05:09;1.30;99.90
4058;DHT22;2044;48.692;9.020;2023-04-03T05:07:35;1.40;99.90
4058;DHT22;2044;48.692;9.020;2023-04-03T05:10:03;1.30;99.90
4058;DHT22;2044;48.692;9.020;2023-04-03T05:12:29;1.40;99.90
4058;DHT22;2044;48.692;9.020;2023-04-03T05:14:57;1.40;99.90
4058;DHT22;2044;48.692;9.020;2023-04-03T05:17:24;1.40;99.90
4058;DHT22;2044;48.692;9.020;2023-04-03T05:19:51;1.40;99.90
4058;DHT22;2044;48.692;9.020;2023-04-03T05:22:17;1.40;99.90
4058;DHT22;2044;48.692;9.020;2023-04-03T05:24:44;1.30;99.90
4058;DHT22;2044;48.692;9.020;2023-04-03T05:27:11;1.40;99.90
4058;DHT22;2044;48.692;9.020;2023-04-03T05:29:37;1.50;99.90
4058;DHT22;2044;48.692;9.020;2023-04-03T05:32:05;1.50;99.90
4058;DHT22;2044;48.692;9.020;2023-04-03T05:34:32;1.60;99.90
4058;DHT22;2044;48.692;9.020;2023-04-03T05:36:59;1.70;99.90
4058;DHT22;2044;48.692;9.020;2023-04-03T05:39:25;1.70;99.90
4058;DHT22;2044;48.692;9.020;2023-04-03T05:41:52;1.80;99.90
4058;DHT22;2044;48.692;9.020;2023-04-03T05:44:19;1.80;99.90
4058;DHT22;2044;48.692;9.020;2023-04-03T05:46:45;1.80;99.90
4058;DHT22;2044;48.692;9.020;2023-04-03T05:49:14;2.10;99.90
4058;DHT22;2044;48.692;9.020;2023-04-03T05:51:40;2.30;99.90
4058;DHT22;2044;48.692;9.020;2023-04-03T05:54:12;2.20;99.90
4058;DHT22;2044;48.692;9.020;2023-04-03T05:56:40;2.20;99.90
4058;DHT22;2044;48.692;9.020;2023-04-03T05:59:06;2.30;99.90
4058;DHT22;2044;48.692;9.020;2023-04-03T06:01:33;2.60;99.90
4058;DHT22;2044;48.692;9.020;2023-04-03T06:04:00;2.70;99.90
4058;DHT22;2044;48.692;9.020;2023-04-03T06:09:23;4.20;99.90
4058;DHT22;2044;48.692;9.020;2023-04-03T06:11:50;4.90;99.90
4058;DHT22;2044;48.692;9.020;2023-04-03T06:14:17;5.10;99.90
4058;DHT22;2044;48.692;9.020;2023-04-03T06:16:44;5.10;99.90
4058;DHT22;2044;48.692;9.020;2023-04-03T06:19:12;4.50;99.90
4058;DHT22;2044;48.692;9.020;2023-04-03T06:21:39;4.10;99.90
4058;DHT22;2044;48.692;9.020;2023-04-03T06:24:06;3.50;99.90
4058;DHT22;2044;48.692;9.020;2023-04-03T06:26:34;3.00;99.90
4058;DHT22;2044;48.692;9.020;2023-04-03T06:29:01;2.90;99.90
4058;DHT22;2044;48.692;9.020;2023-04-03T06:31:28;2.60;99.90
4058;DHT22;2044;48.692;9.020;2023-04-03T06:33:55;2.50;99.90
4058;DHT22;2044;48.692;9.020;2023-04-03T06:36:22;2.40;99.90
4058;DHT22;2044;48.692;9.020;2023-04-03T06:38:48;2.50;99.90
4058;DHT22;2044;48.692;9.020;2023-04-03T06:41:16;2.70;99.90
4058;DHT22;2044;48.692;9.020;2023-04-03T06:43:44;2.90;99.90
4058;DHT22;2044;48.692;9.020;2023-04-03T06:46:14;2.90;99.90
4058;DHT22;2044;48.692;9.020;2023-04-03T06:48:42;3.00;99.90
4058;DHT22;2044;48.692;9.020;2023-04-03T06:51:18;3.10;99.90
4058;DHT22;2044;48.692;9.020;2023-04-03T06:53:46;3.20;99.90
4058;DHT22;2044;48.692;9.020;2023-04-03T06:56:13;3.20;99.90
4058;DHT22;2044;48.692;9.020;2023-04-03T06:58:40;3.00;99.90
4058;DHT22;2044;48.692;9.020;2023-04-03T07:01:09;3.00;99.90
4058;DHT22;2044;48.692;9.020;2023-04-03T07:03:36;3.10;99.90
4058;DHT22;2044;48.692;9.020;2023-04-03T07:06:03;3.20;99.90
4058;DHT22;2044;48.692;9.020;2023-04-03T07:08:30;3.50;99.90
4058;DHT22;2044;48.692;9.020;2023-04-03T07:10:57;3.60;99.90
4058;DHT22;2044;48.692;9.020;2023-04-03T07:13:23;3.60;99.90
4058;DHT22;2044;48.692;9.020;2023-04-03T07:18:19;3.60;99.90
4058;DHT22;2044;48.692;9.020;2023-04-03T07:20:46;3.30;99.90
4058;DHT22;2044;48.692;9.020;2023-04-03T07:23:13;3.40;99.90
4058;DHT22;2044;48.692;9.020;2023-04-03T07:25:42;3.50;99.90
4058;DHT22;2044;48.692;9.020;2023-04-03T07:28:09;3.70;99.90
4058;DHT22;2044;48.692;9.020;2023-04-03T07:30:42;3.80;99.90
4058;DHT22;2044;48.692;9.020;2023-04-03T07:33:09;3.90;99.90
4058;DHT22;2044;48.692;9.020;2023-04-03T07:35:37;4.10;99.90
4058;DHT22;2044;48.692;9.020;2023-04-03T07:38:04;4.10;99.90
4058;DHT22;2044;48.692;9.020;2023-04-03T07:40:31;4.00;99.90
4058;DHT22;2044;48.692;9.020;2023-04-03T07:42:58;4.10;99.90
4058;DHT22;2044;48.692;9.020;2023-04-03T07:45:25;3.90;99.90
4058;DHT22;2044;48.692;9.020;2023-04-03T07:47:53;3.90;99.90
4058;DHT22;2044;48.692;9.020;2023-04-03T07:50:19;3.90;99.90
4058;DHT22;2044;48.692;9.020;2023-04-03T07:52:48;3.90;99.90
4058;DHT22;2044;48.692;9.020;2023-04-03T07:55:16;4.10;99.90
4058;DHT22;2044;48.692;9.020;2023-04-03T07:57:43;4.30;99.90
4058;DHT22;2044;48.692;9.020;2023-04-03T08:00:12;4.80;99.90
4058;DHT22;2044;48.692;9.020;2023-04-03T08:02:40;5.60;99.90
4058;DHT22;2044;48.692;9.020;2023-04-03T08:05:07;6.20;99.90
4058;DHT22;2044;48.692;9.020;2023-04-03T08:07:34;6.50;99.90
4058;DHT22;2044;48.692;9.020;2023-04-03T08:10:05;5.90;99.90
4058;DHT22;2044;48.692;9.020;2023-04-03T08:12:31;5.60;99.90
4058;DHT22;2044;48.692;9.020;2023-04-03T08:14:59;5.70;99.90
4058;DHT22;2044;48.692;9.020;2023-04-03T08:17:26;6.80;99.90
4058;DHT22;2044;48.692;9.020;2023-04-03T08:19:53;7.60;99.90
4058;DHT22;2044;48.692;9.020;2023-04-03T08:22:20;7.10;99.90
4058;DHT22;2044;48.692;9.020;2023-04-03T08:24:47;6.90;99.90
4058;DHT22;2044;48.692;9.020;2023-04-03T08:27:15;6.70;99.90
4058;DHT22;2044;48.692;9.020;2023-04-03T08:29:42;5.80;99.90
4058;DHT22;2044;48.692;9.020;2023-04-03T08:32:08;5.80;99.90
4058;DHT22;2044;48.692;9.020;2023-04-03T08:34:35;5.70;99.90
4058;DHT22;2044;48.692;9.020;2023-04-03T08:37:04;5.60;99.90
4058;DHT22;2044;48.692;9.020;2023-04-03T08:39:31;5.60;99.90
4058;DHT22;2044;48.692;9.020;2023-04-03T08:42:00;5.60;99.90
4058;DHT22;2044;48.692;9.020;2023-04-03T08:44:38;6.10;99.90
4058;DHT22;2044;48.692;9.020;2023-04-03T08:47:16;7.20;99.90
4058;DHT22;2044;48.692;9.020;2023-04-03T08:49:46;6.40;99.90
4058;DHT22;2044;48.692;9.020;2023-04-03T08:52:18;6.40;99.90
4058;DHT22;2044;48.692;9.020;2023-04-03T08:54:50;6.80;99.90
4058;DHT22;2044;48.692;9.020;2023-04-03T08:57:20;7.20;99.90
4058;DHT22;2044;48.692;9.020;2023-04-03T08:59:49;5.80;1.00
4058;DHT22;2044;48.692;9.020;2023-04-03T09:02:29;6.20;99.90
4058;DHT22;2044;48.692;9.020;2023-04-03T09:04:58;6.10;99.90
4058;DHT22;2044;48.692;9.020;2023-04-03T09:07:33;6.00;99.90
4058;DHT22;2044;48.692;9.020;2023-04-03T09:12:34;5.30;99.90
4058;DHT22;2044;48.692;9.020;2023-04-03T09:15:09;5.20;99.90
4058;DHT22;2044;48.692;9.020;2023-04-03T09:17:44;5.90;99.90
4058;DHT22;2044;48.692;9.020;2023-04-03T09:20:21;6.00;99.90
4058;DHT22;2044;48.692;9.020;2023-04-03T09:22:51;6.40;99.90
4058;DHT22;2044;48.692;9.020;2023-04-03T09:25:21;6.40;99.90
4058;DHT22;2044;48.692;9.020;2023-04-03T09:27:49;6.00;99.90
4058;DHT22;2044;48.692;9.020;2023-04-03T09:30:19;6.00;99.90
4058;DHT22;2044;48.692;9.020;2023-04-03T09:32:47;6.30;99.90
4058;DHT22;2044;48.692;9.020;2023-04-03T09:35:21;5.50;99.90
4058;DHT22;2044;48.692;9.020;2023-04-03T09:37:50;5.10;99.90
4058;DHT22;2044;48.692;9.020;2023-04-03T09:40:31;5.10;99.90
4058;DHT22;2044;48.692;9.020;2023-04-03T09:43:01;5.50;99.90
4058;DHT22;2044;48.692;9.020;2023-04-03T09:45:31;5.60;99.90
4058;DHT22;2044;48.692;9.020;2023-04-03T09:48:07;4.90;99.90
4058;DHT22;2044;48.692;9.020;2023-04-03T09:50:36;4.90;99.90
4058;DHT22;2044;48.692;9.020;2023-04-03T09:53:07;5.20;99.90
4058;DHT22;2044;48.692;9.020;2023-04-03T09:55:42;5.00;99.90
4058;DHT22;2044;48.692;9.020;2023-04-03T09:58:25;5.00;99.90
4058;DHT22;2044;48.692;9.020;2023-04-03T10:00:57;5.00;99.90
4058;DHT22;2044;48.692;9.020;2023-04-03T10:03:27;4.70;99.90
4058;DHT22;2044;48.692;9.020;2023-04-03T10:05:54;4.90;99.90
4058;DHT22;2044;48.692;9.020;2023-04-03T10:08:23;5.30;99.90
4058;DHT22;2044;48.692;9.020;2023-04-03T10:11:12;5.60;99.90
4058;DHT22;2044;48.692;9.020;2023-04-03T10:13:56;6.00;99.90
4058;DHT22;2044;48.692;9.020;2023-04-03T10:16:29;6.30;99.90
4058;DHT22;2044;48.692;9.020;2023-04-03T10:19:36;6.20;99.90
4058;DHT22;2044;48.692;9.020;2023-04-03T10:22:16;5.60;99.90
4058;DHT22;2044;48.692;9.020;2023-04-03T10:24:52;5.70;99.90
4058;DHT22;2044;48.692;9.020;2023-04-03T10:27:27;6.10;99.90
4058;DHT22;2044;48.692;9.020;2023-04-03T10:30:02;6.20;99.90
4058;DHT22;2044;48.692;9.020;2023-04-03T10:32:47;6.40;99.90
4058;DHT22;2044;48.692;9.020;2023-04-03T10:35:25;6.30;99.90
4058;DHT22;2044;48.692;9.020;2023-04-03T10:38:02;5.60;99.90
4058;DHT22;2044;48.692;9.020;2023-04-03T10:40:34;6.00;99.90
4058;DHT22;2044;48.692;9.020;2023-04-03T10:43:10;6.10;99.90
4058;DHT22;2044;48.692;9.020;2023-04-03T10:45:51;6.30;99.90
4058;DHT22;2044;48.692;9.020;2023-04-03T10:48:39;6.00;99.90
4058;DHT22;2044;48.692;9.020;2023-04-03T10:51:15;5.70;99.90
4058;DHT22;2044;48.692;9.020;2023-04-03T10:53:47;5.50;99.90
4058;DHT22;2044;48.692;9.020;2023-04-03T10:56:18;5.30;99.90
4058;DHT22;2044;48.692;9.020;2023-04-03T10:58:49;5.70;99.90
4058;DHT22;2044;48.692;9.020;2023-04-03T11:01:20;5.70;99.90
4058;DHT22;2044;48.692;9.020;2023-04-03T11:03:52;6.20;99.90
4058;DHT22;2044;48.692;9.020;2023-04-03T11:06:21;6.80;99.90
4058;DHT22;2044;48.692;9.020;2023-04-03T11:08:52;6.40;99.90
4058;DHT22;2044;48.692;9.020;2023-04-03T11:11:26;5.70;99.90
4058;DHT22;2044;48.692;9.020;2023-04-03T11:13:56;5.30;99.90
4058;DHT22;2044;48.692;9.020;2023-04-03T11:16:29;5.30;99.90
4058;DHT22;2044;48.692;9.020;2023-04-03T11:18:59;5.30;99.90
4058;DHT22;2044;48.692;9.020;2023-04-03T11:21:29;5.40;99.90
4058;DHT22;2044;48.692;9.020;2023-04-03T11:24:03;5.70;99.90
4058;DHT22;2044;48.692;9.020;2023-04-03T11:26:37;5.70;99.90
4058;DHT22;2044;48.692;9.020;2023-04-03T11:29:08;5.80;99.90
4058;DHT22;2044;48.692;9.020;2023-04-03T11:31:45;5.40;99.90
4058;DHT22;2044;48.692;9.020;2023-04-03T11:34:26;5.40;99.90
4058;DHT22;2044;48.692;9.020;2023-04-03T11:37:00;5.20;99.90
4058;DHT22;2044;48.692;9.020;2023-04-03T11:39:29;4.90;99.90
4058;DHT22;2044;48.692;9.020;2023-04-03T11:42:13;4.90;99.90
4058;DHT22;2044;48.692;9.020;2023-04-03T11:44:41;5.30;99.90
4058;DHT22;2044;48.692;9.020;2023-04-03T11:47:10;5.60;99.90
4058;DHT22;2044;48.692;9.020;2023-04-03T11:49:59;5.80;99.90
4058;DHT22;2044;48.692;9.020;2023-04-03T11:52:58;5.80;99.90
4058;DHT22;2044;48.692;9.020;2023-04-03T11:56:03;5.80;99.90
4058;DHT22;2044;48.692;9.020;2023-04-03T11:58:31;5.40;99.90
4058;DHT22;2044;48.692;9.020;2023-04-03T12:01:09;5.10;99.90
4058;DHT22;2044;48.692;9.020;2023-04-03T12:09:56;4.90;99.90
4058;DHT22;2044;48.692;9.020;2023-04-03T12:12:41;5.30;99.90
4058;DHT22;2044;48.692;9.020;2023-04-03T12:15:43;5.30;99.90
4058;DHT22;2044;48.692;9.020;2023-04-03T12:18:37;5.40;99.90
4058;DHT22;2044;48.692;9.020;2023-04-03T12:21:07;5.50;99.90
4058;DHT22;2044;48.692;9.020;2023-04-03T12:23:34;6.00;99.90
4058;DHT22;2044;48.692;9.020;2023-04-03T12:26:18;5.70;99.90
4058;DHT22;2044;48.692;9.020;2023-04-03T12:28:48;6.10;99.90
4058;DHT22;2044;48.692;9.020;2023-04-03T12:31:17;6.30;99.90
4058;DHT22;2044;48.692;9.020;2023-04-03T12:33:59;6.30;99.90
4058;DHT22;2044;48.692;9.020;2023-04-03T12:36:36;6.10;99.90
4058;DHT22;2044;48.692;9.020;2023-04-03T12:42:18;5.30;99.90
4058;DHT22;2044;48.692;9.020;2023-04-03T12:44:55;5.40;99.90
4058;DHT22;2044;48.692;9.020;2023-04-03T12:47:27;5.50;99.90
4058;DHT22;2044;48.692;9.020;2023-04-03T12:49:55;5.50;99.90
4058;DHT22;2044;48.692;9.020;2023-04-03T12:52:32;5.30;99.90
4058;DHT22;2044;48.692;9.020;2023-04-03T12:55:00;5.00;99.90
4058;DHT22;2044;48.692;9.020;2023-04-03T12:57:31;5.00;99.90
4058;DHT22;2044;48.692;9.020;2023-04-03T12:59:58;5.60;99.90
4058;DHT22;2044;48.692;9.020;2023-04-03T13:02:27;5.70;99.90
4058;DHT22;2044;48.692;9.020;2023-04-03T13:04:56;6.00;99.90
4058;DHT22;2044;48.692;9.020;2023-04-03T13:07:27;6.50;99.90
4058;DHT22;2044;48.692;9.020;2023-04-03T13:10:03;6.80;99.90
4058;DHT22;2044;48.692;9.020;2023-04-03T13:12:32;6.70;99.90
4058;DHT22;2044;48.692;9.020;2023-04-03T13:15:00;7.00;99.90
4058;DHT22;2044;48.692;9.020;2023-04-03T13:17:30;7.50;99.90
4058;DHT22;2044;48.692;9.020;2023-04-03T13:20:10;7.00;99.90
4058;DHT22;2044;48.692;9.020;2023-04-03T13:22:47;6.30;99.90
4058;DHT22;2044;48.692;9.020;2023-04-03T13:25:15;6.50;99.90
4058;DHT22;2044;48.692;9.020;2023-04-03T13:27:44;6.40;99.90
4058;DHT22;2044;48.692;9.020;2023-04-03T13:30:24;6.90;99.90
4058;DHT22;2044;48.692;9.020;2023-04-03T13:32:52;7.10;99.90
4058;DHT22;2044;48.692;9.020;2023-04-03T13:35:31;6.60;99.90
4058;DHT22;2044;48.692;9.020;2023-04-03T13:38:01;6.60;99.90
4058;DHT22;2044;48.692;9.020;2023-04-03T13:40:28;6.60;99.90
4058;DHT22;2044;48.692;9.020;2023-04-03T13:43:06;6.90;99.90
4058;DHT22;2044;48.692;9.020;2023-04-03T13:45:34;6.80;99.90
4058;DHT22;2044;48.692;9.020;2023-04-03T13:48:16;6.80;99.90
4058;DHT22;2044;48.692;9.020;2023-04-03T13:50:55;7.30;99.90
4058;DHT22;2044;48.692;9.020;2023-04-03T13:53:23;6.70;99.90
4058;DHT22;2044;48.692;9.020;2023-04-03T13:55:57;6.80;99.90
4058;DHT22;2044;48.692;9.020;2023-04-03T13:58:26;7.00;99.90
4058;DHT22;2044;48.692;9.020;2023-04-03T14:00:55;7.10;99.90
4058;DHT22;2044;48.692;9.020;2023-04-03T14:03:25;7.10;99.90
4058;DHT22;2044;48.692;9.020;2023-04-03T14:05:53;6.80;99.90
4058;DHT22;2044;48.692;9.020;2023-04-03T14:08:21;6.40;99.90
4058;DHT22;2044;48.692;9.020;2023-04-03T14:10:48;6.20;99.90
4058;DHT22;2044;48.692;9.020;2023-04-03T14:13:19;6.40;99.90
4058;DHT22;2044;48.692;9.020;2023-04-03T14:15:48;6.50;99.90
4058;DHT22;2044;48.692;9.020;2023-04-03T14:18:18;6.40;99.90
4058;DHT22;2044;48.692;9.020;2023-04-03T14:20:46;6.50;99.90
4058;DHT22;2044;48.692;9.020;2023-04-03T14:23:13;6.60;99.90
4058;DHT22;2044;48.692;9.020;2023-04-03T14:25:40;6.30;99.90
4058;DHT22;2044;48.692;9.020;2023-04-03T14:28:15;6.60;99.90
4058;DHT22;2044;48.692;9.020;2023-04-03T14:30:42;7.10;99.90
4058;DHT22;2044;48.692;9.020;2023-04-03T14:33:13;7.30;99.90
4058;DHT22;2044;48.692;9.020;2023-04-03T14:35:40;7.40;99.90
4058;DHT22;2044;48.692;9.020;2023-04-03T14:38:17;7.30;99.90
4058;DHT22;2044;48.692;9.020;2023-04-03T14:40:46;7.00;99.90
4058;DHT22;2044;48.692;9.020;2023-04-03T14:43:13;6.60;99.90
4058;DHT22;2044;48.692;9.020;2023-04-03T14:45:40;6.10;99.90
4058;DHT22;2044;48.692;9.020;2023-04-03T14:48:15;5.90;99.90
4058;DHT22;2044;48.692;9.020;2023-04-03T14:50:43;6.80;99.90
4058;DHT22;2044;48.692;9.020;2023-04-03T14:53:12;7.90;99.90
4058;DHT22;2044;48.692;9.020;2023-04-03T14:55:40;5.50;99.90
4058;DHT22;2044;48.692;9.020;2023-04-03T14:58:11;5.40;99.90
4058;DHT22;2044;48.692;9.020;2023-04-03T15:00:38;5.60;99.90
4058;DHT22;2044;48.692;9.020;2023-04-03T15:03:05;5.60;99.90
4058;DHT22;2044;48.692;9.020;2023-04-03T15:05:35;5.40;99.90
4058;DHT22;2044;48.692;9.020;2023-04-03T15:08:02;5.20;99.90
4058;DHT22;2044;48.692;9.020;2023-04-03T15:10:30;5.20;99.90
4058;DHT22;2044;48.692;9.020;2023-04-03T15:15:28;5.70;99.90
4058;DHT22;2044;48.692;9.020;2023-04-03T15:17:56;6.60;99.90
4058;DHT22;2044;48.692;9.020;2023-04-03T15:20:25;7.40;99.90
4058;DHT22;2044;48.692;9.020;2023-04-03T15:22:53;7.90;99.90
4058;DHT22;2044;48.692;9.020;2023-04-03T15:25:21;8.30;99.90
4058;DHT22;2044;48.692;9.020;2023-04-03T15:27:48;7.90;99.90
4058;DHT22;2044;48.692;9.020;2023-04-03T15:30:17;7.40;99.90
4058;DHT22;2044;48.692;9.020;2023-04-03T15:32:44;6.90;99.90
4058;DHT22;2044;48.692;9.020;2023-04-03T15:35:11;6.30;99.90
4058;DHT22;2044;48.692;9.020;2023-04-03T15:37:38;6.10;99.90
4058;DHT22;2044;48.692;9.020;2023-04-03T15:40:07;6.00;99.90
4058;DHT22;2044;48.692;9.020;2023-04-03T15:42:34;5.80;99.90
4058;DHT22;2044;48.692;9.020;2023-04-03T15:45:01;5.90;99.90
4058;DHT22;2044;48.692;9.020;2023-04-03T15:47:28;6.20;99.90
4058;DHT22;2044;48.692;9.020;2023-04-03T15:49:55;6.30;99.90
4058;DHT22;2044;48.692;9.020;2023-04-03T15:52:22;6.30;99.90
4058;DHT22;2044;48.692;9.020;2023-04-03T15:54:49;6.00;99.90
4058;DHT22;2044;48.692;9.020;2023-04-03T15:57:17;5.90;99.90
4058;DHT22;2044;48.692;9.020;2023-04-03T15:59:43;5.70;99.90
4058;DHT22;2044;48.692;9.020;2023-04-03T16:02:11;5.70;99.90
4058;DHT22;2044;48.692;9.020;2023-04-03T16:04:38;5.60;99.90
4058;DHT22;2044;48.692;9.020;2023-04-03T16:07:05;5.70;99.90
4058;DHT22;2044;48.692;9.020;2023-04-03T16:09:33;6.00;99.90
4058;DHT22;2044;48.692;9.020;2023-04-03T16:12:00;6.00;99.90
4058;DHT22;2044;48.692;9.020;2023-04-03T16:14:28;5.80;99.90
4058;DHT22;2044;48.692;9.020;2023-04-03T16:16:56;5.80;99.90
4058;DHT22;2044;48.692;9.020;2023-04-03T16:19:23;5.40;99.90
4058;DHT22;2044;48.692;9.020;2023-04-03T16:21:50;5.60;99.90
4058;DHT22;2044;48.692;9.020;2023-04-03T16:26:44;5.20;99.90
4058;DHT22;2044;48.692;9.020;2023-04-03T16:29:10;4.90;99.90
4058;DHT22;2044;48.692;9.020;2023-04-03T16:31:38;4.80;99.90
4058;DHT22;2044;48.692;9.020;2023-04-03T16:34:05;4.80;99.90
4058;DHT22;2044;48.692;9.020;2023-04-03T16:36:32;5.00;99.90
4058;DHT22;2044;48.692;9.020;2023-04-03T16:38:58;5.40;99.90
4058;DHT22;2044;48.692;9.020;2023-04-03T16:41:25;5.50;99.90
4058;DHT22;2044;48.692;9.020;2023-04-03T16:43:52;5.70;99.90
4058;DHT22;2044;48.692;9.020;2023-04-03T16:46:19;5.70;99.90
4058;DHT22;2044;48.692;9.020;2023-04-03T16:48:47;5.70;99.90
4058;DHT22;2044;48.692;9.020;2023-04-03T16:51:13;5.50;99.90
4058;DHT22;2044;48.692;9.020;2023-04-03T16:53:40;5.20;99.90
4058;DHT22;2044;48.692;9.020;2023-04-03T16:56:07;5.10;99.90
4058;DHT22;2044;48.692;9.020;2023-04-03T16:58:34;5.00;99.90
4058;DHT22;2044;48.692;9.020;2023-04-03T17:01:09;4.80;99.90
4058;DHT22;2044;48.692;9.020;2023-04-03T17:03:35;4.50;99.90